Aidablu — IBWX — position and weather

sailwx.info

Track history (hours):
 
Tides and Currents Weather Stations Pressure Air Temp Water Temp Dewpoint Dewpoint Depression Visibility Wind Speed Wind Dir Waves Ship Positions

Aidablu

Last reported at 2017-Feb-26 03:24 UTC. Time now 2017-Feb-28 05:41 UTC.
Position N 29°08' W 015°36'.

Length 252 m; draft 7.3 m.

Type: Ship. MMSI: 247282500.

Date/timePositionNaut miles runAvg speedWind from/ knotsBaromVisibWave heightAir tempDewpointWater temp
2017-Feb-26 03:24N 29°08' W 015°36'1113.0
2017-Feb-26 02:33N 28°58' W 015°32'1312.7
2017-Feb-26 01:33N 28°45' W 015°28'1313.1
2017-Feb-26 00:33N 28°33' W 015°23'1312.7
2017-Feb-25 23:33N 28°21' W 015°20'1312.7
2017-Feb-25 22:33N 28°08' W 015°22'3 2.9
2017-Feb-25 21:26N 28°08' W 015°25'0 0.0
2017-Feb-25 20:32N 28°08' W 015°25'0 0.0
2017-Feb-25 19:29N 28°08' W 015°25'0 0.0
2017-Feb-25 18:22N 28°08' W 015°25'0 0.0
2017-Feb-25 17:31N 28°08' W 015°25'0 0.0
2017-Feb-25 16:21N 28°08' W 015°25'0 0.0
2017-Feb-25 15:33N 28°08' W 015°25'0 0.0
2017-Feb-25 14:11N 28°08' W 015°25'0 0.0
2017-Feb-25 13:32N 28°08' W 015°25'0 0.0
2017-Feb-25 12:29N 28°08' W 015°25'0 0.0
2017-Feb-25 10:28N 28°08' W 015°25'0 0.0
2017-Feb-25 09:24N 28°08' W 015°25'0 0.0
2017-Feb-25 08:33N 28°08' W 015°25'0 0.0
2017-Feb-25 07:26N 28°08' W 015°25'0 0.0
2017-Feb-25 06:32N 28°08' W 015°25'0 0.0
2017-Feb-25 05:29N 28°08' W 015°25'0 0.0
2017-Feb-25 04:22N 28°08' W 015°25'0 0.0
2017-Feb-25 03:31N 28°08' W 015°25'0 0.0
2017-Feb-25 02:24N 28°08' W 015°25'0 0.0
2017-Feb-25 01:33N 28°08' W 015°25'2 1.6
2017-Feb-25 00:33N 28°07' W 015°24'6 6.2
2017-Feb-24 23:33N 28°13' W 015°26'1313.5
2017-Feb-24 22:33N 28°15' W 015°41'1713.1
2017-Feb-24 21:17N 28°20' W 015°59'1113.5
2017-Feb-24 20:27N 28°26' W 016°10'5 0.3
2017-Feb-24 07:28N 28°28' W 016°14'6 6.0
2017-Feb-24 06:23N 28°26' W 016°08'1112.7
2017-Feb-24 05:33N 28°21' W 015°57'1312.9
2017-Feb-24 04:33N 28°17' W 015°43'1313.4
2017-Feb-24 03:33N 28°16' W 015°28'1313.3
2017-Feb-24 02:33N 28°13' W 015°13'1313.3
2017-Feb-24 01:33N 28°08' W 014°59'1313.3
2017-Feb-24 00:34N 28°03' W 014°45'1313.3
2017-Feb-23 23:33N 27°58' W 014°31'2913.1
2017-Feb-23 21:18N 28°07' W 013°59'26 1.0
2017-Feb-22 20:04N 28°31' W 013°46'714.1
2017-Feb-22 19:33N 28°37' W 013°41'1514.4
2017-Feb-22 18:31N 28°50' W 013°34'8 3.8
2017-Feb-22 16:24N 28°58' W 013°32'0 0.0
2017-Feb-22 15:12N 28°58' W 013°32'0 0.0
2017-Feb-22 13:23N 28°58' W 013°32'0 0.0
2017-Feb-22 11:10N 28°58' W 013°32'0 0.0
2017-Feb-22 10:16N 28°58' W 013°32'0 0.0
2017-Feb-22 09:34N 28°58' W 013°32'0 0.0
2017-Feb-22 08:27N 28°58' W 013°32'0 0.0
2017-Feb-22 07:27N 28°58' W 013°32'3 3.4
2017-Feb-22 06:33N 28°55' W 013°34'7 7.1
2017-Feb-22 05:33N 28°51' W 013°41'1110.7
2017-Feb-22 04:31N 28°49' W 013°53'  
2017-Feb-18 10:25N 28°08' W 015°25'0 0.0
2017-Feb-18 09:19N 28°08' W 015°25'0 0.0
2017-Feb-18 08:27N 28°08' W 015°25'0 0.0
2017-Feb-18 07:33N 28°08' W 015°25'0 0.0
2017-Feb-18 06:30N 28°08' W 015°25'0 0.0
2017-Feb-18 05:23N 28°08' W 015°25'0 0.0
2017-Feb-18 04:32N 28°08' W 015°25'0 0.0
2017-Feb-18 03:25N 28°08' W 015°25'0 0.0
2017-Feb-18 02:31N 28°08' W 015°25'0 0.0
2017-Feb-18 01:27N 28°08' W 015°25'2 2.1
2017-Feb-18 00:33N 28°07' W 015°24'8 8.2
2017-Feb-17 23:33N 28°13' W 015°30'1313.4
2017-Feb-17 22:33N 28°15' W 015°45'1613.2
2017-Feb-17 21:19N 28°21' W 016°02'1013.8
2017-Feb-17 20:33N 28°28' W 016°11'3 2.2
2017-Feb-17 19:16N 28°28' W 016°14'0 0.0
2017-Feb-17 18:16N 28°28' W 016°14'0 0.0
2017-Feb-17 17:21N 28°28' W 016°14'0 0.0
2017-Feb-17 15:23N 28°28' W 016°14'0 0.0
2017-Feb-17 14:32N 28°28' W 016°14'0 0.0
2017-Feb-17 13:28N 28°28' W 016°14'0 0.0
2017-Feb-17 12:22N 28°28' W 016°14'0 0.0
2017-Feb-17 11:31N 28°28' W 016°14'0 0.0
2017-Feb-17 10:24N 28°28' W 016°14'0 0.0
2017-Feb-17 09:33N 28°28' W 016°14'0 0.0
2017-Feb-17 08:23N 28°28' W 016°14'0 0.0
2017-Feb-17 07:29N 28°28' W 016°14'4 4.4
2017-Feb-17 06:32N 28°27' W 016°10'1313.3
2017-Feb-17 05:33N 28°21' W 015°57'1312.8
2017-Feb-17 04:34N 28°17' W 015°43'1413.6
2017-Feb-17 03:33N 28°16' W 015°28'1313.1
2017-Feb-17 02:33N 28°13' W 015°13'1413.5
2017-Feb-17 01:34N 28°08' W 014°59'1413.6
2017-Feb-17 00:33N 28°03' W 014°45'1313.4
2017-Feb-16 23:34N 27°59' W 014°30'1313.2
2017-Feb-16 22:34N 27°59' W 014°15'1411.9
2017-Feb-16 21:22N 28°06' W 014°01'6 7.6
2017-Feb-16 20:33N 28°09' W 013°55'8 7.6
2017-Feb-16 19:34N 28°16' W 013°51'9 8.3
2017-Feb-16 18:30N 28°24' W 013°49'6 1.1
2017-Feb-16 13:19N 28°30' W 013°51'0 0.0
2017-Feb-16 09:17N 28°30' W 013°51'0 0.0
2017-Feb-16 08:29N 28°30' W 013°51'0 0.0
2017-Feb-16 07:04N 28°30' W 013°51'0 0.0
2017-Feb-16 05:22N 28°30' W 013°51'0 0.0
2017-Feb-16 04:15N 28°30' W 013°51'0 0.0
2017-Feb-16 03:27N 28°30' W 013°51'  
Track history (hours):
 
Tides and Currents Weather Stations Pressure Air Temp Water Temp Dewpoint Dewpoint Depression Visibility Wind Speed Wind Dir Waves Ship Positions

Aidablu

Last reported at 2017-Feb-26 03:24 UTC. Time now 2017-Feb-28 05:41 UTC.
Position N 29°08' W 015°36'.

Length 252 m; draft 7.3 m.

Type: Ship. MMSI: 247282500.

Date/timePositionNaut miles runAvg speedWind from/ knotsBaromVisibWave heightAir tempDewpointWater temp
2017-Feb-26 03:24N 29°08' W 015°36'1113.0
2017-Feb-26 02:33N 28°58' W 015°32'1312.7
2017-Feb-26 01:33N 28°45' W 015°28'1313.1
2017-Feb-26 00:33N 28°33' W 015°23'1312.7
2017-Feb-25 23:33N 28°21' W 015°20'1312.7
2017-Feb-25 22:33N 28°08' W 015°22'3 2.9
2017-Feb-25 21:26N 28°08' W 015°25'0 0.0
2017-Feb-25 20:32N 28°08' W 015°25'0 0.0
2017-Feb-25 19:29N 28°08' W 015°25'0 0.0
2017-Feb-25 18:22N 28°08' W 015°25'0 0.0
2017-Feb-25 17:31N 28°08' W 015°25'0 0.0
2017-Feb-25 16:21N 28°08' W 015°25'0 0.0
2017-Feb-25 15:33N 28°08' W 015°25'0 0.0
2017-Feb-25 14:11N 28°08' W 015°25'0 0.0
2017-Feb-25 13:32N 28°08' W 015°25'0 0.0
2017-Feb-25 12:29N 28°08' W 015°25'0 0.0
2017-Feb-25 10:28N 28°08' W 015°25'0 0.0
2017-Feb-25 09:24N 28°08' W 015°25'0 0.0
2017-Feb-25 08:33N 28°08' W 015°25'0 0.0
2017-Feb-25 07:26N 28°08' W 015°25'0 0.0
2017-Feb-25 06:32N 28°08' W 015°25'0 0.0
2017-Feb-25 05:29N 28°08' W 015°25'0 0.0
2017-Feb-25 04:22N 28°08' W 015°25'0 0.0
2017-Feb-25 03:31N 28°08' W 015°25'0 0.0
2017-Feb-25 02:24N 28°08' W 015°25'0 0.0
2017-Feb-25 01:33N 28°08' W 015°25'2 1.6
2017-Feb-25 00:33N 28°07' W 015°24'6 6.2
2017-Feb-24 23:33N 28°13' W 015°26'1313.5
2017-Feb-24 22:33N 28°15' W 015°41'1713.1
2017-Feb-24 21:17N 28°20' W 015°59'1113.5
2017-Feb-24 20:27N 28°26' W 016°10'5 0.3
2017-Feb-24 07:28N 28°28' W 016°14'6 6.0
2017-Feb-24 06:23N 28°26' W 016°08'1112.7
2017-Feb-24 05:33N 28°21' W 015°57'1312.9
2017-Feb-24 04:33N 28°17' W 015°43'1313.4
2017-Feb-24 03:33N 28°16' W 015°28'1313.3
2017-Feb-24 02:33N 28°13' W 015°13'1313.3
2017-Feb-24 01:33N 28°08' W 014°59'1313.3
2017-Feb-24 00:34N 28°03' W 014°45'1313.3
2017-Feb-23 23:33N 27°58' W 014°31'2913.1
2017-Feb-23 21:18N 28°07' W 013°59'26 1.0
2017-Feb-22 20:04N 28°31' W 013°46'714.1
2017-Feb-22 19:33N 28°37' W 013°41'1514.4
2017-Feb-22 18:31N 28°50' W 013°34'8 3.8
2017-Feb-22 16:24N 28°58' W 013°32'0 0.0
2017-Feb-22 15:12N 28°58' W 013°32'0 0.0
2017-Feb-22 13:23N 28°58' W 013°32'0 0.0
2017-Feb-22 11:10N 28°58' W 013°32'0 0.0
2017-Feb-22 10:16N 28°58' W 013°32'0 0.0
2017-Feb-22 09:34N 28°58' W 013°32'0 0.0
2017-Feb-22 08:27N 28°58' W 013°32'0 0.0
2017-Feb-22 07:27N 28°58' W 013°32'3 3.4
2017-Feb-22 06:33N 28°55' W 013°34'7 7.1
2017-Feb-22 05:33N 28°51' W 013°41'1110.7
2017-Feb-22 04:31N 28°49' W 013°53'  
2017-Feb-18 10:25N 28°08' W 015°25'0 0.0
2017-Feb-18 09:19N 28°08' W 015°25'0 0.0
2017-Feb-18 08:27N 28°08' W 015°25'0 0.0
2017-Feb-18 07:33N 28°08' W 015°25'0 0.0
2017-Feb-18 06:30N 28°08' W 015°25'0 0.0
2017-Feb-18 05:23N 28°08' W 015°25'0 0.0
2017-Feb-18 04:32N 28°08' W 015°25'0 0.0
2017-Feb-18 03:25N 28°08' W 015°25'0 0.0
2017-Feb-18 02:31N 28°08' W 015°25'0 0.0
2017-Feb-18 01:27N 28°08' W 015°25'2 2.1
2017-Feb-18 00:33N 28°07' W 015°24'8 8.2
2017-Feb-17 23:33N 28°13' W 015°30'1313.4
2017-Feb-17 22:33N 28°15' W 015°45'1613.2
2017-Feb-17 21:19N 28°21' W 016°02'1013.8
2017-Feb-17 20:33N 28°28' W 016°11'3 2.2
2017-Feb-17 19:16N 28°28' W 016°14'0 0.0
2017-Feb-17 18:16N 28°28' W 016°14'0 0.0
2017-Feb-17 17:21N 28°28' W 016°14'0 0.0
2017-Feb-17 15:23N 28°28' W 016°14'0 0.0
2017-Feb-17 14:32N 28°28' W 016°14'0 0.0
2017-Feb-17 13:28N 28°28' W 016°14'0 0.0
2017-Feb-17 12:22N 28°28' W 016°14'0 0.0
2017-Feb-17 11:31N 28°28' W 016°14'0 0.0
2017-Feb-17 10:24N 28°28' W 016°14'0 0.0
2017-Feb-17 09:33N 28°28' W 016°14'0 0.0
2017-Feb-17 08:23N 28°28' W 016°14'0 0.0
2017-Feb-17 07:29N 28°28' W 016°14'4 4.4
2017-Feb-17 06:32N 28°27' W 016°10'1313.3
2017-Feb-17 05:33N 28°21' W 015°57'1312.8
2017-Feb-17 04:34N 28°17' W 015°43'1413.6
2017-Feb-17 03:33N 28°16' W 015°28'1313.1
2017-Feb-17 02:33N 28°13' W 015°13'1413.5
2017-Feb-17 01:34N 28°08' W 014°59'1413.6
2017-Feb-17 00:33N 28°03' W 014°45'1313.4
2017-Feb-16 23:34N 27°59' W 014°30'1313.2
2017-Feb-16 22:34N 27°59' W 014°15'1411.9
2017-Feb-16 21:22N 28°06' W 014°01'6 7.6
2017-Feb-16 20:33N 28°09' W 013°55'8 7.6
2017-Feb-16 19:34N 28°16' W 013°51'9 8.3
2017-Feb-16 18:30N 28°24' W 013°49'6 1.1
2017-Feb-16 13:19N 28°30' W 013°51'0 0.0
2017-Feb-16 09:17N 28°30' W 013°51'0 0.0
2017-Feb-16 08:29N 28°30' W 013°51'0 0.0
2017-Feb-16 07:04N 28°30' W 013°51'0 0.0
2017-Feb-16 05:22N 28°30' W 013°51'0 0.0
2017-Feb-16 04:15N 28°30' W 013°51'0 0.0
2017-Feb-16 03:27N 28°30' W 013°51'  

Dump ship's entire track history